createdAt,value
2018-12-24T00:00:51.616Z,24.47
2018-12-24T00:03:18.664Z,25.27
2018-12-24T00:05:45.718Z,28.80
2018-12-24T00:08:12.761Z,30.37
2018-12-24T00:10:39.809Z,29.10
2018-12-24T00:13:06.863Z,25.03
2018-12-24T00:15:33.908Z,27.07
2018-12-24T00:18:00.954Z,26.57
2018-12-24T00:20:28.010Z,27.90
2018-12-24T00:22:55.051Z,28.43
2018-12-24T00:25:22.100Z,31.37
2018-12-24T00:27:49.096Z,29.40
2018-12-24T00:30:16.095Z,30.80
2018-12-24T00:32:43.149Z,28.80
2018-12-24T00:35:11.421Z,26.97
2018-12-24T00:37:38.470Z,26.47
2018-12-24T00:40:05.524Z,29.17
2018-12-24T00:42:32.568Z,30.17
2018-12-24T00:44:59.617Z,28.13
2018-12-24T00:47:26.669Z,30.13
2018-12-24T00:49:53.712Z,27.60
2018-12-24T00:52:20.761Z,28.20
2018-12-24T00:54:47.815Z,26.90
2018-12-24T00:57:14.858Z,25.83
2018-12-24T00:59:41.907Z,27.87
2018-12-24T01:02:08.961Z,25.93
2018-12-24T01:04:36.005Z,24.27
2018-12-24T01:07:03.052Z,24.00
2018-12-24T01:09:30.108Z,25.37
2018-12-24T01:11:58.050Z,25.43
2018-12-24T01:14:24.251Z,26.47
2018-12-24T01:16:51.252Z,23.70
2018-12-24T01:19:18.296Z,22.03
2018-12-24T01:21:46.026Z,21.93
2018-12-24T01:24:13.015Z,25.93
2018-12-24T01:26:40.007Z,22.90
2018-12-24T01:29:07.006Z,24.47
2018-12-24T01:31:34.051Z,18.27
2018-12-24T01:34:01.098Z,24.37
2018-12-24T01:36:28.160Z,24.97
2018-12-24T01:38:55.196Z,19.87
2018-12-24T01:41:22.244Z,22.87
2018-12-24T01:43:49.298Z,25.83
2018-12-24T01:46:16.341Z,21.57
2018-12-24T01:48:43.388Z,24.10
2018-12-24T01:51:10.443Z,24.17
2018-12-24T01:53:37.489Z,9.07
2018-12-24T01:56:04.535Z,7.13
2018-12-24T01:58:32.607Z,10.70
2018-12-24T02:00:59.661Z,13.17
2018-12-24T02:03:26.704Z,10.00
2018-12-24T02:05:54.212Z,8.10
2018-12-24T02:08:21.211Z,7.53
2018-12-24T02:10:48.208Z,7.07
2018-12-24T02:13:15.667Z,5.53
2018-12-24T02:15:42.664Z,6.43
2018-12-24T02:18:09.717Z,13.93
2018-12-24T02:20:36.873Z,5.27
2018-12-24T02:23:03.917Z,10.30
2018-12-24T02:25:31.053Z,5.50
2018-12-24T02:27:58.015Z,7.37
2018-12-24T02:30:25.063Z,3.73
2018-12-24T02:32:52.114Z,3.93
2018-12-24T02:35:19.566Z,4.87
2018-12-24T02:37:48.157Z,1.87
2018-12-24T02:40:15.197Z,5.27
2018-12-24T02:42:52.032Z,4.83
2018-12-24T02:45:09.398Z,15.63
2018-12-24T02:47:36.450Z,7.87
2018-12-24T02:50:03.495Z,12.70
2018-12-24T02:52:30.543Z,8.70
2018-12-24T02:54:57.598Z,5.60
2018-12-24T02:57:24.639Z,2.57
2018-12-24T02:59:51.689Z,16.50
2018-12-24T03:02:18.741Z,16.03
2018-12-24T03:04:45.786Z,15.63
2018-12-24T03:07:12.834Z,9.37
2018-12-24T03:09:39.887Z,5.07
2018-12-24T03:12:06.933Z,8.53
2018-12-24T03:14:33.980Z,12.53
2018-12-24T03:17:01.037Z,14.80
2018-12-24T03:19:28.086Z,14.40
2018-12-24T03:21:55.126Z,6.07
2018-12-24T03:24:22.180Z,13.23
2018-12-24T03:26:49.224Z,14.30
2018-12-24T03:29:16.270Z,15.00
2018-12-24T03:31:43.327Z,15.67
2018-12-24T03:34:10.368Z,11.37
2018-12-24T03:36:37.521Z,15.87
2018-12-24T03:39:06.313Z,15.50
2018-12-24T03:41:34.844Z,13.83
2018-12-24T03:44:01.942Z,15.97
2018-12-24T03:46:28.889Z,17.53
2018-12-24T03:48:56.244Z,14.57
2018-12-24T03:51:23.303Z,12.97
2018-12-24T03:53:50.341Z,8.07
2018-12-24T03:56:18.007Z,9.33
2018-12-24T03:58:45.057Z,10.37
2018-12-24T04:01:12.105Z,4.47
2018-12-24T04:03:39.458Z,11.37
2018-12-24T04:06:06.510Z,6.83
2018-12-24T04:08:33.554Z,10.07
2018-12-24T04:11:01.012Z,12.23
2018-12-24T04:13:28.060Z,13.87
2018-12-24T04:15:55.114Z,15.17
2018-12-24T04:18:22.879Z,19.00
2018-12-24T04:20:49.922Z,15.13
2018-12-24T04:23:16.970Z,19.30
2018-12-24T04:25:44.027Z,14.63
2018-12-24T04:28:11.070Z,3.53
2018-12-24T04:30:38.120Z,11.03
2018-12-24T04:33:05.170Z,1.97
2018-12-24T04:35:32.214Z,1.77
2018-12-24T04:37:59.263Z,15.63
2018-12-24T04:40:26.315Z,12.20
2018-12-24T04:42:53.361Z,14.80
2018-12-24T04:45:39.455Z,13.30
2018-12-24T04:48:29.421Z,12.90
2018-12-24T04:51:15.018Z,15.53
2018-12-24T04:53:42.072Z,13.93
2018-12-24T04:56:09.019Z,16.47
2018-12-24T04:58:36.067Z,13.67
2018-12-24T05:01:03.122Z,16.80
2018-12-24T05:03:30.165Z,15.93
2018-12-24T05:05:57.213Z,15.60
2018-12-24T05:08:24.266Z,13.33
2018-12-24T05:10:51.311Z,15.03
2018-12-24T05:13:18.360Z,14.63
2018-12-24T05:15:45.413Z,14.93
2018-12-24T05:18:12.458Z,15.77
2018-12-24T05:20:39.503Z,13.73
2018-12-24T05:23:06.559Z,15.80
2018-12-24T05:25:35.143Z,18.37
2018-12-24T05:28:02.188Z,14.33
2018-12-24T05:30:29.241Z,14.20
2018-12-24T05:32:57.205Z,15.10
2018-12-24T05:35:24.662Z,14.00
2018-12-24T05:37:51.713Z,17.57
2018-12-24T05:40:18.764Z,15.23
2018-12-24T05:42:45.808Z,15.83
2018-12-24T05:45:12.857Z,17.83
2018-12-24T05:47:40.622Z,15.57
2018-12-24T05:50:07.675Z,14.47
2018-12-24T05:52:34.720Z,13.77
2018-12-24T05:55:01.981Z,13.07
2018-12-24T05:57:28.920Z,17.33
2018-12-24T05:59:55.973Z,18.83
2018-12-24T06:02:23.015Z,14.10
2018-12-24T06:04:50.064Z,14.30
2018-12-24T06:07:17.119Z,13.30
2018-12-24T06:09:44.162Z,15.73
2018-12-24T06:12:11.214Z,17.87
2018-12-24T06:14:38.264Z,12.90
2018-12-24T06:17:05.307Z,16.17
2018-12-24T06:19:32.356Z,15.87
2018-12-24T06:21:59.409Z,18.10
2018-12-24T06:24:26.868Z,17.23
2018-12-24T06:26:53.914Z,15.17
2018-12-24T06:29:20.959Z,15.13
2018-12-24T06:31:48.014Z,24.13
2018-12-24T06:34:15.056Z,20.40
2018-12-24T06:36:46.407Z,13.80
2018-12-24T06:39:13.459Z,11.43
2018-12-24T06:41:40.504Z,12.00
2018-12-24T06:44:07.553Z,10.27
2018-12-24T06:46:34.605Z,11.60
2018-12-24T06:49:01.649Z,11.60
2018-12-24T06:51:28.700Z,12.57
2018-12-24T06:53:55.753Z,10.17
2018-12-24T06:56:22.794Z,14.60
2018-12-24T06:58:49.842Z,15.17
2018-12-24T07:01:16.896Z,13.50
2018-12-24T07:03:43.941Z,9.70
2018-12-24T07:06:10.988Z,14.37
2018-12-24T07:08:38.041Z,8.87
2018-12-24T07:11:05.085Z,9.63
2018-12-24T07:13:32.136Z,10.20
2018-12-24T07:15:59.188Z,15.97
2018-12-24T07:18:26.232Z,14.87
2018-12-24T07:20:53.281Z,11.30
2018-12-24T07:23:20.430Z,15.03
2018-12-24T07:25:47.485Z,15.07
2018-12-24T07:28:14.529Z,14.90
2018-12-24T07:30:41.579Z,15.47
2018-12-24T07:33:08.574Z,15.53
2018-12-24T07:35:35.572Z,16.37
2018-12-24T07:38:03.135Z,13.10
2018-12-24T07:40:29.975Z,13.00
2018-12-24T07:42:57.024Z,14.77
2018-12-24T07:45:24.077Z,13.63
2018-12-24T07:47:51.122Z,7.27
2018-12-24T07:50:18.170Z,15.03
2018-12-24T07:52:47.778Z,14.77
2018-12-24T07:55:14.832Z,13.97
2018-12-24T07:57:41.876Z,11.57
2018-12-24T08:00:08.924Z,8.37
2018-12-24T08:02:35.977Z,9.60
2018-12-24T08:05:03.021Z,14.90
2018-12-24T08:07:30.071Z,17.53
2018-12-24T08:09:57.124Z,14.77
2018-12-24T08:12:24.171Z,11.17
2018-12-24T08:14:51.215Z,13.67
2018-12-24T08:17:18.270Z,16.43
2018-12-24T08:19:45.314Z,11.47
2018-12-24T08:22:12.364Z,8.30
2018-12-24T08:24:39.306Z,12.47
2018-12-24T08:27:06.355Z,13.87
2018-12-24T08:29:33.352Z,16.57
2018-12-24T08:32:00.348Z,10.73
2018-12-24T08:34:27.403Z,8.20
2018-12-24T08:36:54.449Z,9.40
2018-12-24T08:39:21.495Z,11.30
2018-12-24T08:41:48.568Z,4.93
2018-12-24T08:44:15.595Z,7.00
2018-12-24T08:46:42.640Z,13.27
2018-12-24T08:49:09.694Z,4.60
2018-12-24T08:51:36.737Z,8.70
2018-12-24T08:54:03.786Z,6.53
2018-12-24T08:56:30.937Z,9.20
2018-12-24T08:58:59.834Z,12.93
2018-12-24T09:01:28.673Z,13.33
2018-12-24T09:03:55.672Z,15.50
2018-12-24T09:06:22.714Z,16.70
2018-12-24T09:08:49.763Z,17.43
2018-12-24T09:11:16.818Z,11.23
2018-12-24T09:13:43.861Z,1.87
2018-12-24T09:16:10.812Z,2.77
2018-12-24T09:18:37.856Z,15.73
2018-12-24T09:21:05.729Z,16.70
2018-12-24T09:23:32.771Z,7.77
2018-12-24T09:25:59.822Z,3.40
2018-12-24T09:28:27.381Z,16.30
2018-12-24T09:30:54.429Z,14.10
2018-12-24T09:33:21.485Z,17.73
2018-12-24T09:35:48.943Z,14.83
2018-12-24T09:38:15.984Z,19.77
2018-12-24T09:40:43.033Z,27.57
2018-12-24T09:43:10.089Z,24.63
2018-12-24T09:45:37.131Z,26.63
2018-12-24T09:48:04.180Z,26.70
2018-12-24T09:50:31.233Z,27.43
2018-12-24T09:52:58.278Z,27.10
2018-12-24T09:55:25.324Z,28.43
2018-12-24T09:57:52.378Z,30.07
2018-12-24T10:00:19.423Z,41.77
2018-12-24T10:02:46.471Z,29.97
2018-12-24T10:05:13.525Z,41.87
2018-12-24T10:07:40.597Z,38.30
2018-12-24T10:10:07.719Z,32.03
2018-12-24T10:12:34.768Z,33.73
2018-12-24T10:15:08.010Z,33.23
2018-12-24T10:17:28.866Z,34.23
2018-12-24T10:19:55.913Z,30.87
2018-12-24T10:22:23.073Z,34.93
2018-12-24T10:24:50.117Z,32.90
2018-12-24T10:27:17.161Z,34.93
2018-12-24T10:29:46.210Z,30.13
2018-12-24T10:32:13.203Z,36.00
2018-12-24T10:34:40.259Z,31.53
2018-12-24T10:37:07.301Z,34.13
2018-12-24T10:39:34.351Z,35.73
2018-12-24T10:42:02.728Z,32.13
2018-12-24T10:44:29.783Z,35.47
2018-12-24T10:46:58.471Z,34.23
2018-12-24T10:49:24.590Z,36.03
2018-12-24T10:51:51.639Z,34.17
2018-12-24T10:54:18.693Z,35.37
2018-12-24T10:56:46.047Z,36.87
2018-12-24T10:59:13.093Z,29.60
2018-12-24T11:01:40.147Z,34.50
2018-12-24T11:04:07.240Z,32.63
2018-12-24T11:06:34.243Z,30.10
2018-12-24T11:09:01.293Z,34.57
2018-12-24T11:11:28.698Z,34.30
2018-12-24T11:13:55.730Z,34.87
2018-12-24T11:16:22.689Z,35.50
2018-12-24T11:18:49.992Z,33.73
2018-12-24T11:21:17.054Z,32.63
2018-12-24T11:23:44.090Z,34.60
2018-12-24T11:26:11.200Z,36.03
2018-12-24T11:28:38.191Z,38.67
2018-12-24T11:31:05.235Z,34.97
2018-12-24T11:33:32.288Z,35.40
2018-12-24T11:35:59.338Z,35.70
2018-12-24T11:38:26.382Z,37.73
2018-12-24T11:40:53.431Z,31.97
2018-12-24T11:43:21.156Z,33.90
2018-12-24T11:45:48.810Z,34.97
2018-12-24T11:48:16.015Z,33.97
2018-12-24T11:50:43.057Z,32.67
2018-12-24T11:53:10.107Z,34.03
2018-12-24T11:55:37.567Z,36.93
2018-12-24T11:58:13.483Z,33.83
2018-12-24T12:00:33.812Z,34.40
2018-12-24T12:03:00.863Z,32.43
2018-12-24T12:05:27.913Z,32.70
2018-12-24T12:07:54.958Z,34.03
2018-12-24T12:10:22.006Z,33.23
2018-12-24T12:12:49.060Z,32.83
2018-12-24T12:15:16.103Z,33.20
2018-12-24T12:17:43.153Z,33.70
2018-12-24T12:20:10.207Z,35.43
2018-12-24T12:22:37.249Z,34.53
2018-12-24T12:25:04.296Z,28.13
2018-12-24T12:27:31.352Z,31.50
2018-12-24T12:29:58.394Z,29.27
2018-12-24T12:32:26.267Z,31.33
2018-12-24T12:34:53.210Z,32.73
2018-12-24T12:37:20.262Z,30.00
2018-12-24T12:39:48.333Z,30.70
2018-12-24T12:42:15.377Z,29.03
2018-12-24T12:44:42.425Z,30.63
2018-12-24T12:47:10.249Z,31.13
2018-12-24T12:49:37.343Z,37.87
2018-12-24T12:52:04.401Z,30.33
2018-12-24T12:54:31.441Z,29.97
2018-12-24T12:57:00.035Z,31.57
2018-12-24T12:59:27.078Z,36.20
2018-12-24T13:01:54.121Z,33.70
2018-12-24T13:04:21.170Z,31.97
2018-12-24T13:06:48.785Z,34.97
2018-12-24T13:09:15.778Z,34.57
2018-12-24T13:11:42.777Z,34.93
2018-12-24T13:14:09.773Z,31.17
2018-12-24T13:16:36.828Z,33.63
2018-12-24T13:19:03.874Z,29.73
2018-12-24T13:21:30.926Z,32.70
2018-12-24T13:23:57.973Z,33.77
2018-12-24T13:26:24.971Z,34.40
2018-12-24T13:28:52.064Z,34.47
2018-12-24T13:31:19.118Z,27.97
2018-12-24T13:33:46.274Z,29.67
2018-12-24T13:36:13.312Z,26.73
2018-12-24T13:38:40.264Z,19.40
2018-12-24T13:41:07.306Z,28.17
2018-12-24T13:43:35.295Z,28.10
2018-12-24T13:46:08.048Z,28.47
2018-12-24T13:48:28.560Z,30.37
2018-12-24T13:50:55.558Z,29.53
2018-12-24T13:53:23.169Z,32.27
2018-12-24T13:55:50.213Z,29.73
2018-12-24T13:58:17.783Z,33.17
2018-12-24T14:00:44.826Z,32.23
2018-12-24T14:03:11.875Z,33.87
2018-12-24T14:05:38.925Z,34.57
2018-12-24T14:08:09.189Z,34.07
2018-12-24T14:10:38.346Z,33.07
2018-12-24T14:13:07.027Z,34.37
2018-12-24T14:15:34.177Z,33.57
2018-12-24T14:18:01.228Z,38.83
2018-12-24T14:20:29.708Z,31.43
2018-12-24T14:22:56.759Z,33.57
2018-12-24T14:25:23.812Z,33.73
2018-12-24T14:27:51.269Z,35.83
2018-12-24T14:30:18.314Z,34.93
2018-12-24T14:32:45.363Z,34.70
2018-12-24T14:35:12.616Z,35.13
2018-12-24T14:37:39.619Z,38.87
2018-12-24T14:40:06.718Z,35.07
2018-12-24T14:42:34.483Z,34.17
2018-12-24T14:45:01.528Z,35.73
2018-12-24T14:47:48.505Z,35.93
2018-12-24T14:50:15.599Z,34.83
2018-12-24T14:52:42.640Z,36.17
2018-12-24T14:55:09.688Z,37.20
2018-12-24T14:57:36.689Z,36.53
2018-12-24T15:00:03.838Z,37.97
2018-12-24T15:02:30.835Z,36.77
2018-12-24T15:04:57.987Z,38.03
2018-12-24T15:07:25.040Z,40.87
2018-12-24T15:09:52.083Z,42.47
2018-12-24T15:12:19.134Z,35.63
2018-12-24T15:14:46.188Z,34.87
2018-12-24T15:17:13.229Z,34.93
2018-12-24T15:19:40.278Z,38.13
2018-12-24T15:22:07.275Z,37.97
2018-12-24T15:24:34.274Z,38.00
2018-12-24T15:27:01.327Z,39.07
2018-12-24T15:29:29.039Z,39.03
2018-12-24T15:31:55.986Z,41.07
2018-12-24T15:34:22.992Z,40.73
2018-12-24T15:36:50.028Z,39.87
2018-12-24T15:39:19.122Z,39.40
2018-12-24T15:41:46.175Z,37.67
2018-12-24T15:44:13.170Z,35.97
2018-12-24T15:46:42.807Z,36.30
2018-12-24T15:49:07.329Z,36.40
2018-12-24T15:51:34.371Z,35.00
2018-12-24T15:54:03.364Z,35.67
2018-12-24T15:56:30.410Z,39.50
2018-12-24T15:58:57.456Z,41.37
2018-12-24T16:01:24.513Z,43.67
2018-12-24T16:03:51.553Z,40.73
2018-12-24T16:06:18.602Z,42.97
2018-12-24T16:08:45.658Z,43.97
2018-12-24T16:11:12.699Z,41.50
2018-12-24T16:13:39.747Z,45.57
2018-12-24T16:16:08.230Z,47.80
2018-12-24T16:18:35.282Z,41.07
2018-12-24T16:21:02.332Z,38.10
2018-12-24T16:23:29.376Z,33.93
2018-12-24T16:25:56.426Z,36.07
2018-12-24T16:28:23.580Z,38.70
2018-12-24T16:30:50.629Z,42.77
2018-12-24T16:33:17.979Z,45.27
2018-12-24T16:35:45.028Z,40.50
2018-12-24T16:38:12.082Z,35.23
2018-12-24T16:40:39.285Z,41.60
2018-12-24T16:43:06.385Z,45.30
2018-12-24T16:45:33.426Z,44.40
2018-12-24T16:48:00.579Z,45.30
2018-12-24T16:50:27.627Z,46.93
2018-12-24T16:52:54.681Z,43.07
2018-12-24T16:55:21.727Z,41.43
2018-12-24T16:57:48.776Z,37.20
2018-12-24T17:00:15.828Z,36.53
2018-12-24T17:02:42.872Z,36.47
2018-12-24T17:05:09.921Z,34.20
2018-12-24T17:07:36.972Z,37.57
2018-12-24T17:10:04.016Z,41.33
2018-12-24T17:12:31.063Z,55.50
2018-12-24T17:14:58.826Z,98.33
2018-12-24T17:17:25.883Z,44.37
2018-12-24T17:19:52.925Z,40.17
2018-12-24T17:22:19.976Z,41.23
2018-12-24T17:24:47.028Z,39.93
2018-12-24T17:27:14.072Z,41.27
2018-12-24T17:29:46.018Z,47.07
2018-12-24T17:32:12.980Z,36.43
2018-12-24T17:34:40.030Z,37.77
2018-12-24T17:37:07.083Z,53.47
2018-12-24T17:39:35.664Z,65.80
2018-12-24T17:42:02.712Z,55.57
2018-12-24T17:44:29.664Z,43.97
2018-12-24T17:46:56.705Z,42.83
2018-12-24T17:49:23.760Z,40.60
2018-12-24T17:51:52.238Z,41.53
2018-12-24T17:54:19.184Z,40.87
2018-12-24T17:56:46.231Z,42.67
2018-12-24T17:59:14.514Z,42.40
2018-12-24T18:01:41.558Z,25.97
2018-12-24T18:04:09.162Z,34.40
2018-12-24T18:06:35.859Z,36.17
2018-12-24T18:09:04.852Z,31.43
2018-12-24T18:11:31.902Z,31.93
2018-12-24T18:13:58.958Z,31.77
2018-12-24T18:16:25.999Z,30.37
2018-12-24T18:18:53.355Z,32.40
2018-12-24T18:21:20.408Z,37.50
2018-12-24T18:23:47.452Z,54.57
2018-12-24T18:26:14.504Z,30.33
2018-12-24T18:28:42.476Z,31.97
2018-12-24T18:31:19.850Z,30.03
2018-12-24T18:33:59.742Z,35.97
2018-12-24T18:36:37.536Z,29.53
2018-12-24T18:39:09.024Z,33.30
2018-12-24T18:41:55.261Z,34.63
2018-12-24T18:44:22.311Z,46.23
2018-12-24T18:47:05.324Z,61.80
2018-12-24T18:49:52.571Z,8.67
2018-12-24T18:52:47.364Z,21.03
2018-12-24T18:55:20.231Z,37.20
2018-12-24T18:57:46.168Z,28.23
2018-12-24T19:00:32.869Z,31.47
2018-12-24T19:03:14.431Z,20.27
2018-12-24T19:05:41.411Z,31.83
2018-12-24T19:08:08.563Z,28.73
2018-12-24T19:10:35.560Z,26.93
2018-12-24T19:13:02.655Z,28.53
2018-12-24T19:15:34.025Z,22.67
2018-12-24T19:18:01.259Z,33.23
2018-12-24T19:20:44.928Z,31.87
2018-12-24T19:23:32.554Z,28.70
2018-12-24T19:26:18.733Z,25.63
2018-12-24T19:29:05.251Z,29.80
2018-12-24T19:31:52.867Z,27.27
2018-12-24T19:34:38.628Z,26.20
2018-12-24T19:37:05.748Z,23.93
2018-12-24T19:39:32.745Z,25.37
2018-12-24T19:41:59.801Z,25.17
2018-12-24T19:44:26.843Z,27.70
2018-12-24T19:46:54.507Z,23.77
2018-12-24T19:49:21.560Z,28.60
2018-12-24T19:52:10.299Z,31.00
2018-12-24T19:54:57.195Z,35.17
2018-12-24T19:57:24.207Z,28.97
2018-12-24T19:59:51.227Z,34.30
2018-12-24T20:02:18.271Z,25.43
2018-12-24T20:04:45.325Z,27.23
2018-12-24T20:07:12.368Z,33.33
2018-12-24T20:09:39.417Z,31.03
2018-12-24T20:12:08.256Z,32.13
2018-12-24T20:17:46.505Z,38.27
2018-12-24T20:20:36.621Z,27.27
2018-12-24T20:23:03.677Z,24.13
2018-12-24T20:25:30.731Z,37.33
2018-12-24T20:27:57.775Z,28.80
2018-12-24T20:30:44.341Z,24.77
2018-12-24T20:33:33.848Z,23.70
2018-12-24T20:36:02.270Z,21.20
2018-12-24T20:38:36.840Z,25.37
2018-12-24T20:41:15.281Z,24.60
2018-12-24T20:43:42.326Z,18.27
2018-12-24T20:46:09.324Z,28.37
2018-12-24T20:48:37.882Z,22.33
2018-12-24T20:51:05.832Z,26.27
2018-12-24T20:53:33.387Z,23.33
2018-12-24T20:56:00.472Z,24.53
2018-12-24T20:58:27.490Z,19.97
2018-12-24T21:00:54.532Z,5.70
2018-12-24T21:03:21.685Z,25.03
2018-12-24T21:05:48.738Z,25.80
2018-12-24T21:08:15.784Z,30.60
2018-12-24T21:10:43.137Z,30.63
2018-12-24T21:13:12.035Z,30.60
2018-12-24T21:15:39.079Z,24.50
2018-12-24T21:18:14.869Z,25.40
2018-12-24T21:20:34.916Z,32.47
2018-12-24T21:23:01.963Z,30.27
2018-12-24T21:25:29.528Z,46.00
2018-12-24T21:27:56.572Z,32.07
2018-12-24T21:30:45.466Z,37.23
2018-12-24T21:33:12.482Z,34.57
2018-12-24T21:35:39.529Z,31.37
2018-12-24T21:38:06.988Z,32.00
2018-12-24T21:40:33.989Z,30.77
2018-12-24T21:43:00.938Z,31.10
2018-12-24T21:45:28.133Z,17.83
2018-12-24T21:47:55.187Z,10.87
2018-12-24T21:50:22.236Z,32.53
2018-12-24T21:52:49.300Z,30.90
2018-12-24T21:55:16.332Z,26.17
2018-12-24T21:57:45.635Z,18.00
2018-12-24T22:00:13.092Z,16.20
2018-12-24T22:03:01.127Z,11.73
2018-12-24T22:05:28.177Z,20.70
2018-12-24T22:07:55.224Z,7.60
2018-12-24T22:10:22.277Z,17.93
2018-12-24T22:12:49.277Z,22.80
2018-12-24T22:15:16.370Z,23.43
2018-12-24T22:17:43.424Z,22.00
2018-12-24T22:20:10.672Z,18.67
2018-12-24T22:22:37.727Z,15.80
2018-12-24T22:25:04.770Z,19.23
2018-12-24T22:27:31.817Z,24.23
2018-12-24T22:29:58.872Z,10.53
2018-12-24T22:32:25.915Z,19.50
2018-12-24T22:34:52.963Z,17.07
2018-12-24T22:37:20.015Z,20.27
2018-12-24T22:39:47.265Z,22.13
2018-12-24T22:42:14.318Z,16.47
2018-12-24T22:44:41.366Z,13.80
2018-12-24T22:47:08.414Z,21.40
2018-12-24T22:49:35.464Z,20.50
2018-12-24T22:52:02.464Z,21.47
2018-12-24T22:54:29.410Z,21.33
2018-12-24T22:56:56.399Z,20.47
2018-12-24T22:59:23.455Z,20.10
2018-12-24T23:01:50.496Z,16.80
2018-12-24T23:04:17.545Z,19.93
2018-12-24T23:06:44.598Z,18.83
2018-12-24T23:09:11.948Z,17.17
2018-12-24T23:11:38.996Z,11.60
2018-12-24T23:14:06.050Z,11.63
2018-12-24T23:16:33.095Z,18.13
2018-12-24T23:19:00.146Z,17.40
2018-12-24T23:21:27.195Z,18.43
2018-12-24T23:23:54.907Z,17.83
2018-12-24T23:26:22.005Z,15.80
2018-12-24T23:28:49.061Z,14.17
2018-12-24T23:31:24.572Z,13.53
2018-12-24T23:33:51.554Z,17.07
2018-12-24T23:36:18.603Z,15.90
2018-12-24T23:38:45.645Z,16.67
2018-12-24T23:41:12.698Z,15.97
2018-12-24T23:43:39.742Z,17.23
2018-12-24T23:46:06.791Z,14.00
2018-12-24T23:48:33.844Z,17.43
2018-12-24T23:51:00.888Z,15.63
2018-12-24T23:53:27.936Z,14.23
2018-12-24T23:55:56.622Z,15.17
2018-12-24T23:58:25.673Z,16.07
